Worksop, United Kingdom
Current Conditions -  °F | °C
As of 12:20 AM on Friday 28 Nov 2014 (Local Time) from EGCN Reporting Station
Overcast Overcast  
Wind Chill:   Ceiling: 700
Heat Index:   Visibility: 4mi
Dew Point:   Wind: 3mph
Humidity: 100%   Direction: 360°N
Pressure: 29.68"   Gusts: NA
Location:  53.31°N, 1.12°W
Report Text: EGCN 280020Z 36003KT 6000 SCT006 OVC007 07/07 Q1005
Loading
Personal Weather Stations






























Interactive Weather Map New forecast layout! Learn more

10-Day Weather Forecast

Advertisements
Track Severe Weather on mobile